sensor_id;sensor_type;location;lat;lon;timestamp;pressure;altitude;pressure_sealevel;temperature;humidity
63554;BME280;49699;48.072;7.800;2022-12-05T00:01:24;99299.22;;;2.46;91.94
63554;BME280;49699;48.072;7.800;2022-12-05T00:03:51;99307.69;;;2.50;91.77
63554;BME280;49699;48.072;7.800;2022-12-05T00:06:17;99311.13;;;2.50;91.68
63554;BME280;49699;48.072;7.800;2022-12-05T00:08:42;99304.25;;;2.51;92.00
63554;BME280;49699;48.072;7.800;2022-12-05T00:11:27;99299.00;;;2.54;91.81
63554;BME280;49699;48.072;7.800;2022-12-05T00:13:54;99300.66;;;2.56;91.67
63554;BME280;49699;48.072;7.800;2022-12-05T00:16:20;99297.13;;;2.60;91.62
63554;BME280;49699;48.072;7.800;2022-12-05T00:18:46;99296.25;;;2.61;91.69
63554;BME280;49699;48.072;7.800;2022-12-05T00:21:13;99297.84;;;2.65;91.81
63554;BME280;49699;48.072;7.800;2022-12-05T00:23:38;99302.09;;;2.66;91.69
63554;BME280;49699;48.072;7.800;2022-12-05T00:26:04;99298.69;;;2.66;91.67
63554;BME280;49699;48.072;7.800;2022-12-05T00:28:30;99306.41;;;2.66;91.56
63554;BME280;49699;48.072;7.800;2022-12-05T00:30:55;99300.41;;;2.65;91.54
63554;BME280;49699;48.072;7.800;2022-12-05T00:33:21;99302.97;;;2.65;91.79
63554;BME280;49699;48.072;7.800;2022-12-05T00:35:46;99304.72;;;2.65;91.60
63554;BME280;49699;48.072;7.800;2022-12-05T00:38:11;99319.25;;;2.66;91.46
63554;BME280;49699;48.072;7.800;2022-12-05T00:40:37;99332.94;;;2.66;91.30
63554;BME280;49699;48.072;7.800;2022-12-05T00:43:02;99332.97;;;2.65;91.46
63554;BME280;49699;48.072;7.800;2022-12-05T00:45:27;99323.50;;;2.67;91.21
63554;BME280;49699;48.072;7.800;2022-12-05T00:47:52;99323.53;;;2.65;91.44
63554;BME280;49699;48.072;7.800;2022-12-05T00:50:18;99323.47;;;2.68;91.55
63554;BME280;49699;48.072;7.800;2022-12-05T00:52:43;99316.63;;;2.67;91.34
63554;BME280;49699;48.072;7.800;2022-12-05T00:55:08;99323.38;;;2.70;91.31
63554;BME280;49699;48.072;7.800;2022-12-05T00:57:34;99330.25;;;2.69;91.20
63554;BME280;49699;48.072;7.800;2022-12-05T00:59:59;99326.03;;;2.68;90.99
63554;BME280;49699;48.072;7.800;2022-12-05T01:02:24;99325.13;;;2.69;90.88
63554;BME280;49699;48.072;7.800;2022-12-05T01:04:49;99314.78;;;2.71;90.96
63554;BME280;49699;48.072;7.800;2022-12-05T01:07:15;99316.47;;;2.72;91.27
63554;BME280;49699;48.072;7.800;2022-12-05T01:09:40;99314.78;;;2.71;90.84
63554;BME280;49699;48.072;7.800;2022-12-05T01:12:05;99323.34;;;2.71;91.19
63554;BME280;49699;48.072;7.800;2022-12-05T01:14:31;99334.47;;;2.72;91.19
63554;BME280;49699;48.072;7.800;2022-12-05T01:16:56;99340.50;;;2.71;91.08
63554;BME280;49699;48.072;7.800;2022-12-05T01:19:23;99343.88;;;2.73;91.14
63554;BME280;49699;48.072;7.800;2022-12-05T01:21:49;99334.44;;;2.73;91.36
63554;BME280;49699;48.072;7.800;2022-12-05T01:24:15;99342.94;;;2.75;91.15
63554;BME280;49699;48.072;7.800;2022-12-05T01:26:40;99339.53;;;2.75;91.15
63554;BME280;49699;48.072;7.800;2022-12-05T01:29:05;99343.84;;;2.74;91.24
63554;BME280;49699;48.072;7.800;2022-12-05T01:31:32;99350.66;;;2.75;91.20
63554;BME280;49699;48.072;7.800;2022-12-05T01:33:58;99353.16;;;2.78;90.95
63554;BME280;49699;48.072;7.800;2022-12-05T01:36:24;99363.38;;;2.80;91.07
63554;BME280;49699;48.072;7.800;2022-12-05T01:38:50;99361.69;;;2.79;91.11
63554;BME280;49699;48.072;7.800;2022-12-05T01:41:16;99369.38;;;2.81;90.79
63554;BME280;49699;48.072;7.800;2022-12-05T01:44:03;99360.00;;;2.78;90.89
63554;BME280;49699;48.072;7.800;2022-12-05T01:46:30;99354.91;;;2.76;90.82
63554;BME280;49699;48.072;7.800;2022-12-05T01:48:57;99364.38;;;2.74;90.75
63554;BME280;49699;48.072;7.800;2022-12-05T01:51:24;99370.38;;;2.75;90.79
63554;BME280;49699;48.072;7.800;2022-12-05T01:53:50;99361.00;;;2.72;90.89
63554;BME280;49699;48.072;7.800;2022-12-05T01:56:15;99361.94;;;2.70;91.24
63554;BME280;49699;48.072;7.800;2022-12-05T01:58:42;99360.31;;;2.67;91.50
63554;BME280;49699;48.072;7.800;2022-12-05T02:01:09;99356.91;;;2.67;91.51
63554;BME280;49699;48.072;7.800;2022-12-05T02:03:35;99357.78;;;2.66;91.22
63554;BME280;49699;48.072;7.800;2022-12-05T02:06:01;99349.22;;;2.65;91.50
63554;BME280;49699;48.072;7.800;2022-12-05T02:08:27;99354.41;;;2.64;91.48
63554;BME280;49699;48.072;7.800;2022-12-05T02:10:53;99351.00;;;2.63;91.79
63554;BME280;49699;48.072;7.800;2022-12-05T02:24:38;99362.94;;;2.66;91.79
63554;BME280;49699;48.072;7.800;2022-12-05T02:32:13;99354.44;;;2.62;91.60
63554;BME280;49699;48.072;7.800;2022-12-05T02:37:11;99355.38;;;2.60;91.83
63554;BME280;49699;48.072;7.800;2022-12-05T02:42:24;99345.25;;;2.54;92.14
63554;BME280;49699;48.072;7.800;2022-12-05T02:44:56;99350.38;;;2.54;91.97
63554;BME280;49699;48.072;7.800;2022-12-05T02:47:26;99352.91;;;2.55;92.38
63554;BME280;49699;48.072;7.800;2022-12-05T02:49:52;99350.28;;;2.58;92.21
63554;BME280;49699;48.072;7.800;2022-12-05T02:52:18;99351.16;;;2.57;91.80
63554;BME280;49699;48.072;7.800;2022-12-05T02:54:47;99347.75;;;2.57;91.94
63554;BME280;49699;48.072;7.800;2022-12-05T02:57:12;99341.75;;;2.56;91.83
63554;BME280;49699;48.072;7.800;2022-12-05T02:59:39;99331.56;;;2.53;91.85
63554;BME280;49699;48.072;7.800;2022-12-05T03:02:06;99341.00;;;2.53;92.38
63554;BME280;49699;48.072;7.800;2022-12-05T03:04:32;99348.69;;;2.53;92.31
63554;BME280;49699;48.072;7.800;2022-12-05T03:06:58;99342.78;;;2.51;92.17
63554;BME280;49699;48.072;7.800;2022-12-05T03:09:34;99350.41;;;2.52;91.93
63554;BME280;49699;48.072;7.800;2022-12-05T03:14:30;99352.91;;;2.55;92.01
63554;BME280;49699;48.072;7.800;2022-12-05T03:16:59;99360.53;;;2.58;92.43
63554;BME280;49699;48.072;7.800;2022-12-05T03:19:29;99356.25;;;2.59;92.11
63554;BME280;49699;48.072;7.800;2022-12-05T03:22:00;99365.59;;;2.61;92.00
63554;BME280;49699;48.072;7.800;2022-12-05T03:24:27;99357.88;;;2.63;92.12
63554;BME280;49699;48.072;7.800;2022-12-05T03:29:32;99365.50;;;2.66;91.88
63554;BME280;49699;48.072;7.800;2022-12-05T03:34:34;99372.41;;;2.64;91.77
63554;BME280;49699;48.072;7.800;2022-12-05T03:37:04;99369.03;;;2.62;92.10
63554;BME280;49699;48.072;7.800;2022-12-05T03:39:32;99371.66;;;2.59;92.05
63554;BME280;49699;48.072;7.800;2022-12-05T03:42:02;99369.94;;;2.59;91.99
63554;BME280;49699;48.072;7.800;2022-12-05T03:44:34;99374.19;;;2.60;91.99
63554;BME280;49699;48.072;7.800;2022-12-05T03:47:09;99377.66;;;2.59;91.82
63554;BME280;49699;48.072;7.800;2022-12-05T03:49:44;99383.66;;;2.58;92.04
63554;BME280;49699;48.072;7.800;2022-12-05T03:52:13;99386.19;;;2.60;92.05
63554;BME280;49699;48.072;7.800;2022-12-05T03:54:41;99391.31;;;2.61;91.84
63554;BME280;49699;48.072;7.800;2022-12-05T03:57:12;99393.03;;;2.61;91.93
63554;BME280;49699;48.072;7.800;2022-12-05T03:59:42;99400.66;;;2.64;92.29
63554;BME280;49699;48.072;7.800;2022-12-05T04:02:11;99401.50;;;2.64;92.10
63554;BME280;49699;48.072;7.800;2022-12-05T04:04:40;99398.06;;;2.65;92.15
63554;BME280;49699;48.072;7.800;2022-12-05T04:07:08;99391.19;;;2.66;91.98
63554;BME280;49699;48.072;7.800;2022-12-05T04:09:42;99394.56;;;2.68;91.76
63554;BME280;49699;48.072;7.800;2022-12-05T04:12:11;99390.19;;;2.70;92.04
63554;BME280;49699;48.072;7.800;2022-12-05T04:14:43;99379.03;;;2.71;91.79
63554;BME280;49699;48.072;7.800;2022-12-05T04:17:26;99382.41;;;2.73;91.88
63554;BME280;49699;48.072;7.800;2022-12-05T04:20:09;99372.97;;;2.73;91.83
63554;BME280;49699;48.072;7.800;2022-12-05T04:22:55;99386.66;;;2.74;91.91
63554;BME280;49699;48.072;7.800;2022-12-05T04:25:20;99384.09;;;2.74;91.80
63554;BME280;49699;48.072;7.800;2022-12-05T04:28:02;99384.97;;;2.73;91.91
63554;BME280;49699;48.072;7.800;2022-12-05T04:30:40;99382.41;;;2.73;91.45
63554;BME280;49699;48.072;7.800;2022-12-05T04:33:13;99378.97;;;2.74;91.61
63554;BME280;49699;48.072;7.800;2022-12-05T04:35:44;99387.47;;;2.76;92.04
63554;BME280;49699;48.072;7.800;2022-12-05T04:38:36;99394.34;;;2.75;91.93
63554;BME280;49699;48.072;7.800;2022-12-05T04:40:58;99400.41;;;2.73;91.65
63554;BME280;49699;48.072;7.800;2022-12-05T04:43:25;99402.13;;;2.72;91.92
63554;BME280;49699;48.072;7.800;2022-12-05T04:45:52;99410.69;;;2.73;91.98
63554;BME280;49699;48.072;7.800;2022-12-05T04:48:18;99409.81;;;2.74;92.14
63554;BME280;49699;48.072;7.800;2022-12-05T04:50:46;99404.66;;;2.74;91.96
63554;BME280;49699;48.072;7.800;2022-12-05T04:53:12;99411.44;;;2.76;91.91
63554;BME280;49699;48.072;7.800;2022-12-05T04:55:39;99412.28;;;2.77;92.12
63554;BME280;49699;48.072;7.800;2022-12-05T04:58:10;99402.84;;;2.77;91.99
63554;BME280;49699;48.072;7.800;2022-12-05T05:00:38;99406.28;;;2.78;91.82
63554;BME280;49699;48.072;7.800;2022-12-05T05:03:10;99401.09;;;2.79;92.09
63554;BME280;49699;48.072;7.800;2022-12-05T05:05:38;99402.78;;;2.81;91.83
63554;BME280;49699;48.072;7.800;2022-12-05T05:08:04;99403.63;;;2.81;91.82
63554;BME280;49699;48.072;7.800;2022-12-05T05:10:41;99416.47;;;2.81;91.82
63554;BME280;49699;48.072;7.800;2022-12-05T05:13:09;99414.78;;;2.80;91.72
63554;BME280;49699;48.072;7.800;2022-12-05T05:15:34;99418.22;;;2.81;92.06
63554;BME280;49699;48.072;7.800;2022-12-05T05:17:59;99413.00;;;2.84;91.88
63554;BME280;49699;48.072;7.800;2022-12-05T05:20:24;99417.97;;;2.88;91.76
63554;BME280;49699;48.072;7.800;2022-12-05T05:22:51;99423.00;;;2.93;92.04
63554;BME280;49699;48.072;7.800;2022-12-05T05:25:17;99425.44;;;2.99;91.88
63554;BME280;49699;48.072;7.800;2022-12-05T05:27:46;99432.91;;;3.06;91.69
63554;BME280;49699;48.072;7.800;2022-12-05T05:30:11;99424.97;;;3.16;91.86
63554;BME280;49699;48.072;7.800;2022-12-05T05:32:36;99428.91;;;3.27;91.45
63554;BME280;49699;48.072;7.800;2022-12-05T05:35:02;99432.13;;;3.35;91.50
63554;BME280;49699;48.072;7.800;2022-12-05T05:37:27;99433.53;;;3.45;91.14
63554;BME280;49699;48.072;7.800;2022-12-05T05:39:52;99438.44;;;3.55;90.86
63554;BME280;49699;48.072;7.800;2022-12-05T05:42:18;99434.78;;;3.62;91.28
63554;BME280;49699;48.072;7.800;2022-12-05T05:44:43;99437.19;;;3.68;90.76
63554;BME280;49699;48.072;7.800;2022-12-05T05:47:08;99452.50;;;3.72;90.98
63554;BME280;49699;48.072;7.800;2022-12-05T05:49:33;99447.31;;;3.74;90.53
63554;BME280;49699;48.072;7.800;2022-12-05T05:51:59;99455.81;;;3.76;90.99
63554;BME280;49699;48.072;7.800;2022-12-05T05:54:24;99457.41;;;3.80;90.34
63554;BME280;49699;48.072;7.800;2022-12-05T05:56:49;99460.72;;;3.83;90.54
63554;BME280;49699;48.072;7.800;2022-12-05T05:59:15;99468.41;;;3.85;90.21
63554;BME280;49699;48.072;7.800;2022-12-05T06:01:40;99473.47;;;3.88;90.43
63554;BME280;49699;48.072;7.800;2022-12-05T06:04:05;99476.84;;;3.90;90.53
63554;BME280;49699;48.072;7.800;2022-12-05T06:06:31;99479.41;;;3.90;90.09
63554;BME280;49699;48.072;7.800;2022-12-05T06:08:57;99481.06;;;3.93;90.24
63554;BME280;49699;48.072;7.800;2022-12-05T06:11:23;99483.47;;;3.97;89.93
63554;BME280;49699;48.072;7.800;2022-12-05T06:13:49;99489.34;;;4.02;90.05
63554;BME280;49699;48.072;7.800;2022-12-05T06:16:15;99496.13;;;4.05;89.76
63554;BME280;49699;48.072;7.800;2022-12-05T06:18:41;99496.06;;;4.08;89.43
63554;BME280;49699;48.072;7.800;2022-12-05T06:21:06;99492.53;;;4.10;88.93
63554;BME280;49699;48.072;7.800;2022-12-05T06:23:33;99499.31;;;4.13;89.04
63554;BME280;49699;48.072;7.800;2022-12-05T06:25:58;99507.00;;;4.14;88.63
63554;BME280;49699;48.072;7.800;2022-12-05T06:28:24;99496.66;;;4.16;88.48
63554;BME280;49699;48.072;7.800;2022-12-05T06:30:49;99503.47;;;4.17;88.20
63554;BME280;49699;48.072;7.800;2022-12-05T06:33:17;99511.16;;;4.18;88.39
63554;BME280;49699;48.072;7.800;2022-12-05T06:35:42;99506.81;;;4.21;87.94
63554;BME280;49699;48.072;7.800;2022-12-05T06:38:08;99503.34;;;4.22;87.72
63554;BME280;49699;48.072;7.800;2022-12-05T06:40:34;99505.94;;;4.22;87.67
63554;BME280;49699;48.072;7.800;2022-12-05T06:42:59;99505.94;;;4.22;87.91
63554;BME280;49699;48.072;7.800;2022-12-05T06:45:24;99506.78;;;4.22;87.64
63554;BME280;49699;48.072;7.800;2022-12-05T06:47:50;99496.41;;;4.24;87.30
63554;BME280;49699;48.072;7.800;2022-12-05T06:50:16;99491.28;;;4.24;87.48
63554;BME280;49699;48.072;7.800;2022-12-05T06:52:41;99500.69;;;4.25;87.19
63554;BME280;49699;48.072;7.800;2022-12-05T06:55:06;99495.50;;;4.26;86.69
63554;BME280;49699;48.072;7.800;2022-12-05T06:57:32;99496.34;;;4.27;86.68
63554;BME280;49699;48.072;7.800;2022-12-05T06:59:57;99493.72;;;4.28;86.36
63554;BME280;49699;48.072;7.800;2022-12-05T07:02:45;99495.44;;;4.28;86.33
63554;BME280;49699;48.072;7.800;2022-12-05T07:05:10;99504.78;;;4.30;86.04
63554;BME280;49699;48.072;7.800;2022-12-05T07:07:36;99512.50;;;4.30;85.99
63554;BME280;49699;48.072;7.800;2022-12-05T07:10:02;99521.94;;;4.31;85.94
63554;BME280;49699;48.072;7.800;2022-12-05T07:12:28;99518.47;;;4.32;86.10
63554;BME280;49699;48.072;7.800;2022-12-05T07:14:53;99513.25;;;4.34;85.61
63554;BME280;49699;48.072;7.800;2022-12-05T07:17:19;99524.41;;;4.34;85.65
63554;BME280;49699;48.072;7.800;2022-12-05T07:19:48;99529.53;;;4.36;85.77
63554;BME280;49699;48.072;7.800;2022-12-05T07:22:14;99530.38;;;4.36;85.86
63554;BME280;49699;48.072;7.800;2022-12-05T07:24:39;99531.16;;;4.38;85.64
63554;BME280;49699;48.072;7.800;2022-12-05T07:27:05;99537.97;;;4.41;85.43
63554;BME280;49699;48.072;7.800;2022-12-05T07:29:30;99543.97;;;4.41;85.21
63554;BME280;49699;48.072;7.800;2022-12-05T07:31:56;99553.34;;;4.44;85.58
63554;BME280;49699;48.072;7.800;2022-12-05T07:34:21;99556.75;;;4.44;85.44
63554;BME280;49699;48.072;7.800;2022-12-05T07:36:46;99551.59;;;4.44;85.42
63554;BME280;49699;48.072;7.800;2022-12-05T07:39:12;99556.81;;;4.43;85.85
63554;BME280;49699;48.072;7.800;2022-12-05T07:41:37;99556.09;;;4.38;85.71
63554;BME280;49699;48.072;7.800;2022-12-05T07:44:06;99553.56;;;4.36;85.79
63554;BME280;49699;48.072;7.800;2022-12-05T07:46:34;99558.72;;;4.36;85.85
63554;BME280;49699;48.072;7.800;2022-12-05T07:48:59;99560.41;;;4.37;85.53
63554;BME280;49699;48.072;7.800;2022-12-05T07:51:25;99561.25;;;4.38;84.94
63554;BME280;49699;48.072;7.800;2022-12-05T07:53:50;99568.00;;;4.42;84.71
63554;BME280;49699;48.072;7.800;2022-12-05T07:56:16;99572.22;;;4.44;84.65
63554;BME280;49699;48.072;7.800;2022-12-05T07:58:42;99574.72;;;4.47;84.30
63554;BME280;49699;48.072;7.800;2022-12-05T08:01:10;99575.53;;;4.48;83.94
63554;BME280;49699;48.072;7.800;2022-12-05T08:03:35;99582.28;;;4.52;84.06
63554;BME280;49699;48.072;7.800;2022-12-05T08:06:11;99584.00;;;4.51;84.00
63554;BME280;49699;48.072;7.800;2022-12-05T08:08:37;99583.06;;;4.54;83.35
63554;BME280;49699;48.072;7.800;2022-12-05T08:11:06;99588.16;;;4.57;83.41
63554;BME280;49699;48.072;7.800;2022-12-05T08:13:32;99581.22;;;4.59;82.86
63554;BME280;49699;48.072;7.800;2022-12-05T08:16:02;99580.31;;;4.60;82.90
63554;BME280;49699;48.072;7.800;2022-12-05T08:18:27;99588.00;;;4.62;82.50
63554;BME280;49699;48.072;7.800;2022-12-05T08:20:53;99583.66;;;4.64;82.45
63554;BME280;49699;48.072;7.800;2022-12-05T08:23:18;99583.63;;;4.65;82.49
63554;BME280;49699;48.072;7.800;2022-12-05T08:25:43;99591.22;;;4.68;82.43
63554;BME280;49699;48.072;7.800;2022-12-05T08:28:09;99586.88;;;4.70;82.11
63554;BME280;49699;48.072;7.800;2022-12-05T08:30:34;99595.41;;;4.72;81.88
63554;BME280;49699;48.072;7.800;2022-12-05T08:32:59;99591.03;;;4.74;81.44
63554;BME280;49699;48.072;7.800;2022-12-05T08:35:25;99596.06;;;4.79;81.20
63554;BME280;49699;48.072;7.800;2022-12-05T08:37:50;99596.81;;;4.82;81.06
63554;BME280;49699;48.072;7.800;2022-12-05T08:40:16;99594.13;;;4.85;80.33
63554;BME280;49699;48.072;7.800;2022-12-05T08:42:41;99593.97;;;4.90;80.32
63554;BME280;49699;48.072;7.800;2022-12-05T08:45:06;99594.78;;;4.92;79.90
63554;BME280;49699;48.072;7.800;2022-12-05T08:47:32;99611.00;;;4.96;79.47
63554;BME280;49699;48.072;7.800;2022-12-05T08:49:57;99607.47;;;4.98;79.48
63554;BME280;49699;48.072;7.800;2022-12-05T08:52:22;99616.72;;;5.04;79.05
63554;BME280;49699;48.072;7.800;2022-12-05T08:54:48;99614.06;;;5.07;79.24
63554;BME280;49699;48.072;7.800;2022-12-05T08:57:13;99606.19;;;5.11;79.06
63554;BME280;49699;48.072;7.800;2022-12-05T08:59:38;99615.41;;;5.18;78.50
63554;BME280;49699;48.072;7.800;2022-12-05T09:02:04;99616.09;;;5.23;78.16
63554;BME280;49699;48.072;7.800;2022-12-05T09:04:29;99612.53;;;5.28;77.77
63554;BME280;49699;48.072;7.800;2022-12-05T09:06:54;99615.84;;;5.31;77.72
63554;BME280;49699;48.072;7.800;2022-12-05T09:09:20;99623.50;;;5.34;77.68
63554;BME280;49699;48.072;7.800;2022-12-05T09:11:45;99628.56;;;5.37;77.31
63554;BME280;49699;48.072;7.800;2022-12-05T09:14:13;99639.59;;;5.41;77.33
63554;BME280;49699;48.072;7.800;2022-12-05T09:16:38;99636.91;;;5.44;77.13
63554;BME280;49699;48.072;7.800;2022-12-05T09:19:11;99637.63;;;5.49;76.96
63554;BME280;49699;48.072;7.800;2022-12-05T09:21:37;99642.69;;;5.52;76.58
63554;BME280;49699;48.072;7.800;2022-12-05T09:24:02;99652.91;;;5.55;76.26
63554;BME280;49699;48.072;7.800;2022-12-05T09:26:28;99658.75;;;5.60;76.10
63554;BME280;49699;48.072;7.800;2022-12-05T09:28:55;99662.97;;;5.63;75.57
63554;BME280;49699;48.072;7.800;2022-12-05T09:31:21;99661.97;;;5.67;75.04
63554;BME280;49699;48.072;7.800;2022-12-05T09:33:47;99661.94;;;5.68;74.91
63554;BME280;49699;48.072;7.800;2022-12-05T09:36:15;99672.09;;;5.73;74.80
63554;BME280;49699;48.072;7.800;2022-12-05T09:38:41;99666.81;;;5.76;74.49
63554;BME280;49699;48.072;7.800;2022-12-05T09:41:20;99667.59;;;5.78;74.26
63554;BME280;49699;48.072;7.800;2022-12-05T09:47:06;99663.88;;;5.86;73.85
63554;BME280;49699;48.072;7.800;2022-12-05T09:49:37;99669.00;;;5.88;73.53
63554;BME280;49699;48.072;7.800;2022-12-05T09:52:04;99670.66;;;5.90;73.57
63554;BME280;49699;48.072;7.800;2022-12-05T09:54:30;99672.31;;;5.91;73.70
63554;BME280;49699;48.072;7.800;2022-12-05T09:56:56;99668.00;;;5.92;73.54
63554;BME280;49699;48.072;7.800;2022-12-05T09:59:21;99660.16;;;5.95;73.42
63554;BME280;49699;48.072;7.800;2022-12-05T10:14:54;99669.75;;;7.07;69.99
63554;BME280;49699;48.072;7.800;2022-12-05T10:17:31;99662.66;;;7.12;69.49
63554;BME280;49699;48.072;7.800;2022-12-05T10:19:58;99660.34;;;7.04;69.92
63554;BME280;49699;48.072;7.800;2022-12-05T10:22:27;99666.69;;;6.97;70.12
63554;BME280;49699;48.072;7.800;2022-12-05T10:24:55;99667.81;;;6.90;70.58
63554;BME280;49699;48.072;7.800;2022-12-05T10:27:26;99676.47;;;6.89;70.29
63554;BME280;49699;48.072;7.800;2022-12-05T10:32:30;99677.81;;;6.77;70.61
63554;BME280;49699;48.072;7.800;2022-12-05T10:35:05;99673.34;;;6.81;70.75
63554;BME280;49699;48.072;7.800;2022-12-05T10:37:34;99674.97;;;6.83;70.46
63554;BME280;49699;48.072;7.800;2022-12-05T10:40:00;99673.34;;;6.81;70.14
63554;BME280;49699;48.072;7.800;2022-12-05T10:42:27;99670.84;;;6.79;70.33
63554;BME280;49699;48.072;7.800;2022-12-05T10:44:58;99673.41;;;6.79;70.25
63554;BME280;49699;48.072;7.800;2022-12-05T10:47:25;99670.63;;;6.84;70.24
63554;BME280;49699;48.072;7.800;2022-12-05T10:49:51;99670.47;;;6.88;69.66
63554;BME280;49699;48.072;7.800;2022-12-05T10:52:16;99673.72;;;6.93;69.55
63554;BME280;49699;48.072;7.800;2022-12-05T10:54:43;99670.03;;;6.99;69.20
63554;BME280;49699;48.072;7.800;2022-12-05T10:57:24;99669.75;;;7.07;69.23
63554;BME280;49699;48.072;7.800;2022-12-05T10:59:51;99668.59;;;7.14;68.97
63554;BME280;49699;48.072;7.800;2022-12-05T11:02:17;99663.09;;;7.21;68.46
63554;BME280;49699;48.072;7.800;2022-12-05T11:04:44;99662.75;;;7.30;68.39
63554;BME280;49699;48.072;7.800;2022-12-05T11:07:22;99661.34;;;7.44;67.54
63554;BME280;49699;48.072;7.800;2022-12-05T11:09:48;99662.13;;;7.66;66.98
63554;BME280;49699;48.072;7.800;2022-12-05T11:12:17;99655.41;;;7.82;66.32
63554;BME280;49699;48.072;7.800;2022-12-05T11:14:53;99662.56;;;7.96;66.04
63554;BME280;49699;48.072;7.800;2022-12-05T11:17:35;99668.28;;;8.04;64.98
63554;BME280;49699;48.072;7.800;2022-12-05T11:20:03;99660.22;;;8.10;65.38
63554;BME280;49699;48.072;7.800;2022-12-05T11:22:47;99659.38;;;8.10;65.62
63554;BME280;49699;48.072;7.800;2022-12-05T11:27:48;99648.59;;;8.19;64.73
63554;BME280;49699;48.072;7.800;2022-12-05T11:30:16;99651.19;;;8.19;64.60
63554;BME280;49699;48.072;7.800;2022-12-05T11:32:43;99644.97;;;8.23;64.65
63554;BME280;49699;48.072;7.800;2022-12-05T11:37:44;99639.31;;;8.33;64.31
63554;BME280;49699;48.072;7.800;2022-12-05T11:40:15;99642.09;;;8.29;64.73
63554;BME280;49699;48.072;7.800;2022-12-05T11:45:37;99633.19;;;8.16;65.39
63554;BME280;49699;48.072;7.800;2022-12-05T11:48:11;99642.19;;;8.07;65.09
63554;BME280;49699;48.072;7.800;2022-12-05T11:55:44;99634.66;;;7.62;63.86
63554;BME280;49699;48.072;7.800;2022-12-05T12:11:36;99617.19;;;7.26;63.67
63554;BME280;49699;48.072;7.800;2022-12-05T12:24:26;99633.44;;;7.08;65.71
63554;BME280;49699;48.072;7.800;2022-12-05T12:27:12;99637.13;;;7.03;65.92
63554;BME280;49699;48.072;7.800;2022-12-05T12:34:58;99635.59;;;6.99;65.95
63554;BME280;49699;48.072;7.800;2022-12-05T12:37:40;99642.41;;;7.00;65.94
63554;BME280;49699;48.072;7.800;2022-12-05T12:40:16;99647.72;;;6.96;65.86
63554;BME280;49699;48.072;7.800;2022-12-05T12:47:53;99637.97;;;6.81;66.07
63554;BME280;49699;48.072;7.800;2022-12-05T12:50:41;99627.97;;;6.72;66.24
63554;BME280;49699;48.072;7.800;2022-12-05T12:55:52;99635.19;;;6.64;66.63
63554;BME280;49699;48.072;7.800;2022-12-05T13:03:49;99632.22;;;6.51;67.03
63554;BME280;49699;48.072;7.800;2022-12-05T13:06:25;99641.72;;;6.51;67.09
63554;BME280;49699;48.072;7.800;2022-12-05T13:09:01;99636.63;;;6.49;67.47
63554;BME280;49699;48.072;7.800;2022-12-05T13:11:28;99635.88;;;6.46;67.56
63554;BME280;49699;48.072;7.800;2022-12-05T13:13:58;99635.81;;;6.47;67.59
63554;BME280;49699;48.072;7.800;2022-12-05T13:16:26;99634.03;;;6.49;67.80
63554;BME280;49699;48.072;7.800;2022-12-05T13:18:53;99637.41;;;6.51;67.91
63554;BME280;49699;48.072;7.800;2022-12-05T13:21:19;99637.19;;;6.57;67.75
63554;BME280;49699;48.072;7.800;2022-12-05T13:23:49;99634.34;;;6.63;67.57
63554;BME280;49699;48.072;7.800;2022-12-05T13:26:16;99624.63;;;6.70;67.54
63554;BME280;49699;48.072;7.800;2022-12-05T13:29:04;99631.13;;;6.80;66.96
63554;BME280;49699;48.072;7.800;2022-12-05T13:31:40;99628.22;;;6.88;66.27
63554;BME280;49699;48.072;7.800;2022-12-05T13:34:28;99632.00;;;7.01;65.49
63554;BME280;49699;48.072;7.800;2022-12-05T13:36:51;99634.41;;;7.06;65.58
63554;BME280;49699;48.072;7.800;2022-12-05T13:39:36;99633.34;;;7.11;65.65
63554;BME280;49699;48.072;7.800;2022-12-05T13:42:22;99632.44;;;7.12;65.55
63554;BME280;49699;48.072;7.800;2022-12-05T13:47:33;99630.75;;;7.11;65.54
63554;BME280;49699;48.072;7.800;2022-12-05T13:52:31;99627.31;;;7.11;65.23
63554;BME280;49699;48.072;7.800;2022-12-05T13:55:10;99634.13;;;7.13;65.11
63554;BME280;49699;48.072;7.800;2022-12-05T14:10:07;99626.41;;;7.12;64.97
63554;BME280;49699;48.072;7.800;2022-12-05T14:12:52;99628.16;;;7.11;65.09
63554;BME280;49699;48.072;7.800;2022-12-05T14:15:39;99627.44;;;7.08;65.21
63554;BME280;49699;48.072;7.800;2022-12-05T14:18:38;99637.06;;;7.04;65.58
63554;BME280;49699;48.072;7.800;2022-12-05T14:21:18;99638.88;;;7.02;65.67
63554;BME280;49699;48.072;7.800;2022-12-05T14:26:28;99635.50;;;7.00;65.92
63554;BME280;49699;48.072;7.800;2022-12-05T14:34:30;99637.63;;;6.90;65.98
63554;BME280;49699;48.072;7.800;2022-12-05T14:39:44;99637.84;;;6.84;66.21
63554;BME280;49699;48.072;7.800;2022-12-05T14:44:55;99641.47;;;6.80;66.36
63554;BME280;49699;48.072;7.800;2022-12-05T14:47:22;99637.25;;;6.78;66.61
63554;BME280;49699;48.072;7.800;2022-12-05T14:49:57;99644.22;;;6.76;66.79
63554;BME280;49699;48.072;7.800;2022-12-05T14:52:26;99639.13;;;6.74;66.71
63554;BME280;49699;48.072;7.800;2022-12-05T14:54:53;99634.97;;;6.70;66.89
63554;BME280;49699;48.072;7.800;2022-12-05T14:57:21;99645.41;;;6.67;67.24
63554;BME280;49699;48.072;7.800;2022-12-05T14:59:54;99647.16;;;6.67;67.22
63554;BME280;49699;48.072;7.800;2022-12-05T15:02:22;99647.22;;;6.65;67.22
63554;BME280;49699;48.072;7.800;2022-12-05T15:04:50;99652.53;;;6.62;67.53
63554;BME280;49699;48.072;7.800;2022-12-05T15:07:20;99650.00;;;6.60;67.71
63554;BME280;49699;48.072;7.800;2022-12-05T15:09:59;99654.31;;;6.60;67.99
63554;BME280;49699;48.072;7.800;2022-12-05T15:15:09;99652.88;;;6.53;67.59
63554;BME280;49699;48.072;7.800;2022-12-05T15:17:38;99664.16;;;6.50;67.97
63554;BME280;49699;48.072;7.800;2022-12-05T15:20:10;99657.34;;;6.48;67.97
63554;BME280;49699;48.072;7.800;2022-12-05T15:22:39;99664.31;;;6.46;67.96
63554;BME280;49699;48.072;7.800;2022-12-05T15:25:14;99665.34;;;6.42;68.10
63554;BME280;49699;48.072;7.800;2022-12-05T15:27:39;99663.84;;;6.36;68.07
63554;BME280;49699;48.072;7.800;2022-12-05T15:30:05;99664.94;;;6.29;68.31
63554;BME280;49699;48.072;7.800;2022-12-05T15:32:30;99664.25;;;6.25;68.28
63554;BME280;49699;48.072;7.800;2022-12-05T15:34:59;99660.13;;;6.20;68.42